sensor_id;sensor_type;location;lat;lon;timestamp;P1;durP1;ratioP1;P2;durP2;ratioP2
67378;SDS011;54262;44.642;-0.974;2023-06-26T00:01:23;6.38;;;3.28;;
67378;SDS011;54262;44.642;-0.974;2023-06-26T00:03:48;7.97;;;3.10;;
67378;SDS011;54262;44.642;-0.974;2023-06-26T00:06:14;8.85;;;3.13;;
67378;SDS011;54262;44.642;-0.974;2023-06-26T00:08:40;4.80;;;2.90;;
67378;SDS011;54262;44.642;-0.974;2023-06-26T00:11:06;4.63;;;3.42;;
67378;SDS011;54262;44.642;-0.974;2023-06-26T00:13:31;5.82;;;2.78;;
67378;SDS011;54262;44.642;-0.974;2023-06-26T00:15:57;6.00;;;3.00;;
67378;SDS011;54262;44.642;-0.974;2023-06-26T00:18:25;6.35;;;2.88;;
67378;SDS011;54262;44.642;-0.974;2023-06-26T00:20:50;3.80;;;3.22;;
67378;SDS011;54262;44.642;-0.974;2023-06-26T00:23:16;4.15;;;3.22;;
67378;SDS011;54262;44.642;-0.974;2023-06-26T00:25:43;9.32;;;3.00;;
67378;SDS011;54262;44.642;-0.974;2023-06-26T00:28:11;4.35;;;3.00;;
67378;SDS011;54262;44.642;-0.974;2023-06-26T00:30:39;4.03;;;3.60;;
67378;SDS011;54262;44.642;-0.974;2023-06-26T00:33:05;6.45;;;3.53;;
67378;SDS011;54262;44.642;-0.974;2023-06-26T00:35:30;3.83;;;3.53;;
67378;SDS011;54262;44.642;-0.974;2023-06-26T00:37:56;2.92;;;2.72;;
67378;SDS011;54262;44.642;-0.974;2023-06-26T00:40:22;4.80;;;3.50;;
67378;SDS011;54262;44.642;-0.974;2023-06-26T00:42:47;6.75;;;3.20;;
67378;SDS011;54262;44.642;-0.974;2023-06-26T00:45:13;5.28;;;3.67;;
67378;SDS011;54262;44.642;-0.974;2023-06-26T00:47:39;5.22;;;3.97;;
67378;SDS011;54262;44.642;-0.974;2023-06-26T00:50:05;8.82;;;3.72;;
67378;SDS011;54262;44.642;-0.974;2023-06-26T00:52:31;7.75;;;3.22;;
67378;SDS011;54262;44.642;-0.974;2023-06-26T00:54:57;9.68;;;3.50;;
67378;SDS011;54262;44.642;-0.974;2023-06-26T00:57:23;5.93;;;4.15;;
67378;SDS011;54262;44.642;-0.974;2023-06-26T00:59:49;9.60;;;3.70;;
67378;SDS011;54262;44.642;-0.974;2023-06-26T01:02:15;4.78;;;3.47;;
67378;SDS011;54262;44.642;-0.974;2023-06-26T01:04:54;10.05;;;3.92;;
67378;SDS011;54262;44.642;-0.974;2023-06-26T01:07:20;9.80;;;3.47;;
67378;SDS011;54262;44.642;-0.974;2023-06-26T01:09:47;6.35;;;3.67;;
67378;SDS011;54262;44.642;-0.974;2023-06-26T01:12:13;7.80;;;4.10;;
67378;SDS011;54262;44.642;-0.974;2023-06-26T01:14:40;8.65;;;3.58;;
67378;SDS011;54262;44.642;-0.974;2023-06-26T01:17:05;7.93;;;3.65;;
67378;SDS011;54262;44.642;-0.974;2023-06-26T01:19:33;4.30;;;3.95;;
67378;SDS011;54262;44.642;-0.974;2023-06-26T01:22:17;6.85;;;4.00;;
67378;SDS011;54262;44.642;-0.974;2023-06-26T01:27:54;9.82;;;3.88;;
67378;SDS011;54262;44.642;-0.974;2023-06-26T01:30:22;5.40;;;4.32;;
67378;SDS011;54262;44.642;-0.974;2023-06-26T01:32:52;6.20;;;3.90;;
67378;SDS011;54262;44.642;-0.974;2023-06-26T01:35:18;12.75;;;4.70;;
67378;SDS011;54262;44.642;-0.974;2023-06-26T01:37:44;6.10;;;3.97;;
67378;SDS011;54262;44.642;-0.974;2023-06-26T01:40:10;14.07;;;4.45;;
67378;SDS011;54262;44.642;-0.974;2023-06-26T01:42:36;9.07;;;3.97;;
67378;SDS011;54262;44.642;-0.974;2023-06-26T01:45:03;5.07;;;4.47;;
67378;SDS011;54262;44.642;-0.974;2023-06-26T01:47:50;5.88;;;4.47;;
67378;SDS011;54262;44.642;-0.974;2023-06-26T01:50:18;6.25;;;4.60;;
67378;SDS011;54262;44.642;-0.974;2023-06-26T01:53:04;6.95;;;5.63;;
67378;SDS011;54262;44.642;-0.974;2023-06-26T01:55:41;5.70;;;4.57;;
67378;SDS011;54262;44.642;-0.974;2023-06-26T01:58:13;8.73;;;4.80;;
67378;SDS011;54262;44.642;-0.974;2023-06-26T02:00:39;4.90;;;4.50;;
67378;SDS011;54262;44.642;-0.974;2023-06-26T02:03:05;5.82;;;4.68;;
67378;SDS011;54262;44.642;-0.974;2023-06-26T02:05:31;9.20;;;4.72;;
67378;SDS011;54262;44.642;-0.974;2023-06-26T02:07:57;10.98;;;4.70;;
67378;SDS011;54262;44.642;-0.974;2023-06-26T02:10:23;5.38;;;4.85;;
67378;SDS011;54262;44.642;-0.974;2023-06-26T02:12:49;7.95;;;5.90;;
67378;SDS011;54262;44.642;-0.974;2023-06-26T02:15:15;4.63;;;4.30;;
67378;SDS011;54262;44.642;-0.974;2023-06-26T02:17:43;9.20;;;5.18;;
67378;SDS011;54262;44.642;-0.974;2023-06-26T02:20:13;5.57;;;5.05;;
67378;SDS011;54262;44.642;-0.974;2023-06-26T02:22:39;9.77;;;5.70;;
67378;SDS011;54262;44.642;-0.974;2023-06-26T02:25:05;5.97;;;5.07;;
67378;SDS011;54262;44.642;-0.974;2023-06-26T02:27:31;7.82;;;6.05;;
67378;SDS011;54262;44.642;-0.974;2023-06-26T02:29:56;8.80;;;5.25;;
67378;SDS011;54262;44.642;-0.974;2023-06-26T02:32:24;8.88;;;5.57;;
67378;SDS011;54262;44.642;-0.974;2023-06-26T02:34:52;6.50;;;6.10;;
67378;SDS011;54262;44.642;-0.974;2023-06-26T02:37:18;6.18;;;5.68;;
67378;SDS011;54262;44.642;-0.974;2023-06-26T02:39:44;7.50;;;5.95;;
67378;SDS011;54262;44.642;-0.974;2023-06-26T02:42:10;6.57;;;5.90;;
67378;SDS011;54262;44.642;-0.974;2023-06-26T02:44:36;6.43;;;5.68;;
67378;SDS011;54262;44.642;-0.974;2023-06-26T02:47:01;6.22;;;5.78;;
67378;SDS011;54262;44.642;-0.974;2023-06-26T02:49:27;6.80;;;6.18;;
67378;SDS011;54262;44.642;-0.974;2023-06-26T02:51:53;7.35;;;5.78;;
67378;SDS011;54262;44.642;-0.974;2023-06-26T02:54:19;6.25;;;5.85;;
67378;SDS011;54262;44.642;-0.974;2023-06-26T02:56:45;6.75;;;5.93;;
67378;SDS011;54262;44.642;-0.974;2023-06-26T02:59:11;10.00;;;6.60;;
67378;SDS011;54262;44.642;-0.974;2023-06-26T03:01:36;10.98;;;5.65;;
67378;SDS011;54262;44.642;-0.974;2023-06-26T03:04:02;6.60;;;5.93;;
67378;SDS011;54262;44.642;-0.974;2023-06-26T03:06:32;5.85;;;5.55;;
67378;SDS011;54262;44.642;-0.974;2023-06-26T03:08:57;9.40;;;6.40;;
67378;SDS011;54262;44.642;-0.974;2023-06-26T03:11:23;9.35;;;5.88;;
67378;SDS011;54262;44.642;-0.974;2023-06-26T03:13:48;7.05;;;5.72;;
67378;SDS011;54262;44.642;-0.974;2023-06-26T03:16:14;9.70;;;6.10;;
67378;SDS011;54262;44.642;-0.974;2023-06-26T03:18:40;11.75;;;6.47;;
67378;SDS011;54262;44.642;-0.974;2023-06-26T03:21:05;7.15;;;5.85;;
67378;SDS011;54262;44.642;-0.974;2023-06-26T03:23:31;8.40;;;6.38;;
67378;SDS011;54262;44.642;-0.974;2023-06-26T03:25:57;6.78;;;6.18;;
67378;SDS011;54262;44.642;-0.974;2023-06-26T03:28:22;7.38;;;6.20;;
67378;SDS011;54262;44.642;-0.974;2023-06-26T03:30:48;9.75;;;5.85;;
67378;SDS011;54262;44.642;-0.974;2023-06-26T03:33:16;9.27;;;7.07;;
67378;SDS011;54262;44.642;-0.974;2023-06-26T03:35:44;9.77;;;6.85;;
67378;SDS011;54262;44.642;-0.974;2023-06-26T03:38:09;6.85;;;6.22;;
67378;SDS011;54262;44.642;-0.974;2023-06-26T03:40:35;8.55;;;6.28;;
67378;SDS011;54262;44.642;-0.974;2023-06-26T03:43:00;8.55;;;6.90;;
67378;SDS011;54262;44.642;-0.974;2023-06-26T03:45:26;8.30;;;7.05;;
67378;SDS011;54262;44.642;-0.974;2023-06-26T03:47:52;9.32;;;6.25;;
67378;SDS011;54262;44.642;-0.974;2023-06-26T03:50:18;7.03;;;6.40;;
67378;SDS011;54262;44.642;-0.974;2023-06-26T03:52:44;7.00;;;6.32;;
67378;SDS011;54262;44.642;-0.974;2023-06-26T03:55:10;8.50;;;7.10;;
67378;SDS011;54262;44.642;-0.974;2023-06-26T03:57:36;9.50;;;7.05;;
67378;SDS011;54262;44.642;-0.974;2023-06-26T04:00:02;12.60;;;6.00;;
67378;SDS011;54262;44.642;-0.974;2023-06-26T04:02:33;9.65;;;6.10;;
67378;SDS011;54262;44.642;-0.974;2023-06-26T04:04:59;6.88;;;6.28;;
67378;SDS011;54262;44.642;-0.974;2023-06-26T04:07:26;6.72;;;5.90;;
67378;SDS011;54262;44.642;-0.974;2023-06-26T04:09:52;10.90;;;6.40;;
67378;SDS011;54262;44.642;-0.974;2023-06-26T04:12:20;8.82;;;6.68;;
67378;SDS011;54262;44.642;-0.974;2023-06-26T04:14:46;6.97;;;6.47;;
67378;SDS011;54262;44.642;-0.974;2023-06-26T04:17:11;9.50;;;6.65;;
67378;SDS011;54262;44.642;-0.974;2023-06-26T04:19:37;10.10;;;6.40;;
67378;SDS011;54262;44.642;-0.974;2023-06-26T04:22:03;9.57;;;7.03;;
67378;SDS011;54262;44.642;-0.974;2023-06-26T04:24:28;10.63;;;6.28;;
67378;SDS011;54262;44.642;-0.974;2023-06-26T04:26:54;9.88;;;6.93;;
67378;SDS011;54262;44.642;-0.974;2023-06-26T04:29:22;12.98;;;7.38;;
67378;SDS011;54262;44.642;-0.974;2023-06-26T04:31:50;7.38;;;6.78;;
67378;SDS011;54262;44.642;-0.974;2023-06-26T04:34:19;12.80;;;6.68;;
67378;SDS011;54262;44.642;-0.974;2023-06-26T04:36:47;11.60;;;7.78;;
67378;SDS011;54262;44.642;-0.974;2023-06-26T04:39:13;8.63;;;7.22;;
67378;SDS011;54262;44.642;-0.974;2023-06-26T04:41:42;10.60;;;7.60;;
67378;SDS011;54262;44.642;-0.974;2023-06-26T04:44:07;13.48;;;8.13;;
67378;SDS011;54262;44.642;-0.974;2023-06-26T04:46:33;7.72;;;7.13;;
67378;SDS011;54262;44.642;-0.974;2023-06-26T04:48:59;8.27;;;7.50;;
67378;SDS011;54262;44.642;-0.974;2023-06-26T04:51:25;8.05;;;7.25;;
67378;SDS011;54262;44.642;-0.974;2023-06-26T04:53:52;8.90;;;8.27;;
67378;SDS011;54262;44.642;-0.974;2023-06-26T04:56:18;8.63;;;7.43;;
67378;SDS011;54262;44.642;-0.974;2023-06-26T04:58:43;9.07;;;7.97;;
67378;SDS011;54262;44.642;-0.974;2023-06-26T05:01:09;11.63;;;7.55;;
67378;SDS011;54262;44.642;-0.974;2023-06-26T05:03:35;9.57;;;7.18;;
67378;SDS011;54262;44.642;-0.974;2023-06-26T05:06:01;13.93;;;8.73;;
67378;SDS011;54262;44.642;-0.974;2023-06-26T05:08:27;8.77;;;7.43;;
67378;SDS011;54262;44.642;-0.974;2023-06-26T05:10:53;8.77;;;7.95;;
67378;SDS011;54262;44.642;-0.974;2023-06-26T05:13:22;8.57;;;7.88;;
67378;SDS011;54262;44.642;-0.974;2023-06-26T05:15:48;10.40;;;7.75;;
67378;SDS011;54262;44.642;-0.974;2023-06-26T05:18:14;9.15;;;7.65;;
67378;SDS011;54262;44.642;-0.974;2023-06-26T05:20:40;8.77;;;7.57;;
67378;SDS011;54262;44.642;-0.974;2023-06-26T05:23:06;10.55;;;8.23;;
67378;SDS011;54262;44.642;-0.974;2023-06-26T05:25:32;13.82;;;8.20;;
67378;SDS011;54262;44.642;-0.974;2023-06-26T05:28:01;9.18;;;7.63;;
67378;SDS011;54262;44.642;-0.974;2023-06-26T05:30:30;10.68;;;7.20;;
67378;SDS011;54262;44.642;-0.974;2023-06-26T05:32:56;13.27;;;7.60;;
67378;SDS011;54262;44.642;-0.974;2023-06-26T05:35:28;9.63;;;7.25;;
67378;SDS011;54262;44.642;-0.974;2023-06-26T05:37:57;8.38;;;7.43;;
67378;SDS011;54262;44.642;-0.974;2023-06-26T05:40:23;12.50;;;7.38;;
67378;SDS011;54262;44.642;-0.974;2023-06-26T05:42:49;13.32;;;6.75;;
67378;SDS011;54262;44.642;-0.974;2023-06-26T05:45:15;10.00;;;5.82;;
67378;SDS011;54262;44.642;-0.974;2023-06-26T05:47:41;7.93;;;6.78;;
67378;SDS011;54262;44.642;-0.974;2023-06-26T05:50:08;7.22;;;6.13;;
67378;SDS011;54262;44.642;-0.974;2023-06-26T05:52:35;9.43;;;6.10;;
67378;SDS011;54262;44.642;-0.974;2023-06-26T05:55:01;6.80;;;6.18;;
67378;SDS011;54262;44.642;-0.974;2023-06-26T05:57:28;7.70;;;6.22;;
67378;SDS011;54262;44.642;-0.974;2023-06-26T05:59:55;11.80;;;7.55;;
67378;SDS011;54262;44.642;-0.974;2023-06-26T06:02:21;8.65;;;5.93;;
67378;SDS011;54262;44.642;-0.974;2023-06-26T06:04:46;7.10;;;6.50;;
67378;SDS011;54262;44.642;-0.974;2023-06-26T06:07:12;9.85;;;6.68;;
67378;SDS011;54262;44.642;-0.974;2023-06-26T06:09:38;10.07;;;5.57;;
67378;SDS011;54262;44.642;-0.974;2023-06-26T06:12:04;13.10;;;7.18;;
67378;SDS011;54262;44.642;-0.974;2023-06-26T06:14:31;7.03;;;6.35;;
67378;SDS011;54262;44.642;-0.974;2023-06-26T06:16:57;7.43;;;5.80;;
67378;SDS011;54262;44.642;-0.974;2023-06-26T06:19:23;8.18;;;5.68;;
67378;SDS011;54262;44.642;-0.974;2023-06-26T06:21:49;5.18;;;4.68;;
67378;SDS011;54262;44.642;-0.974;2023-06-26T06:24:14;8.80;;;6.20;;
67378;SDS011;54262;44.642;-0.974;2023-06-26T06:26:40;6.43;;;5.57;;
67378;SDS011;54262;44.642;-0.974;2023-06-26T06:29:06;9.07;;;6.30;;
67378;SDS011;54262;44.642;-0.974;2023-06-26T06:31:31;7.55;;;6.05;;
67378;SDS011;54262;44.642;-0.974;2023-06-26T06:33:57;8.70;;;5.50;;
67378;SDS011;54262;44.642;-0.974;2023-06-26T06:36:25;5.75;;;4.90;;
67378;SDS011;54262;44.642;-0.974;2023-06-26T06:38:55;7.90;;;5.20;;
67378;SDS011;54262;44.642;-0.974;2023-06-26T06:41:20;10.00;;;6.30;;
67378;SDS011;54262;44.642;-0.974;2023-06-26T06:43:46;5.65;;;4.80;;
67378;SDS011;54262;44.642;-0.974;2023-06-26T06:46:12;13.98;;;5.25;;
67378;SDS011;54262;44.642;-0.974;2023-06-26T06:48:37;10.90;;;4.78;;
67378;SDS011;54262;44.642;-0.974;2023-06-26T06:51:03;7.93;;;4.47;;
67378;SDS011;54262;44.642;-0.974;2023-06-26T06:53:29;8.45;;;4.65;;
67378;SDS011;54262;44.642;-0.974;2023-06-26T06:55:55;8.73;;;4.45;;
67378;SDS011;54262;44.642;-0.974;2023-06-26T06:58:21;15.93;;;4.55;;
67378;SDS011;54262;44.642;-0.974;2023-06-26T07:00:47;11.75;;;4.38;;
67378;SDS011;54262;44.642;-0.974;2023-06-26T07:03:14;19.15;;;4.35;;
67378;SDS011;54262;44.642;-0.974;2023-06-26T07:05:43;10.00;;;3.63;;
67378;SDS011;54262;44.642;-0.974;2023-06-26T07:08:09;7.35;;;3.42;;
67378;SDS011;54262;44.642;-0.974;2023-06-26T07:10:35;9.88;;;4.03;;
67378;SDS011;54262;44.642;-0.974;2023-06-26T07:13:01;19.88;;;3.55;;
67378;SDS011;54262;44.642;-0.974;2023-06-26T07:15:27;5.63;;;3.33;;
67378;SDS011;54262;44.642;-0.974;2023-06-26T07:17:53;7.35;;;4.50;;
67378;SDS011;54262;44.642;-0.974;2023-06-26T07:20:19;9.60;;;3.70;;
67378;SDS011;54262;44.642;-0.974;2023-06-26T07:22:45;6.35;;;3.05;;
67378;SDS011;54262;44.642;-0.974;2023-06-26T07:25:11;6.03;;;2.92;;
67378;SDS011;54262;44.642;-0.974;2023-06-26T07:27:37;4.53;;;2.30;;
67378;SDS011;54262;44.642;-0.974;2023-06-26T07:30:03;5.95;;;2.22;;
67378;SDS011;54262;44.642;-0.974;2023-06-26T07:32:29;5.05;;;2.60;;
67378;SDS011;54262;44.642;-0.974;2023-06-26T07:34:54;6.65;;;2.72;;
67378;SDS011;54262;44.642;-0.974;2023-06-26T07:37:23;8.18;;;4.05;;
67378;SDS011;54262;44.642;-0.974;2023-06-26T07:39:50;6.05;;;3.30;;
67378;SDS011;54262;44.642;-0.974;2023-06-26T07:42:16;7.78;;;2.30;;
67378;SDS011;54262;44.642;-0.974;2023-06-26T07:44:42;6.60;;;2.42;;
67378;SDS011;54262;44.642;-0.974;2023-06-26T07:47:08;4.95;;;2.40;;
67378;SDS011;54262;44.642;-0.974;2023-06-26T07:49:34;3.53;;;2.40;;
67378;SDS011;54262;44.642;-0.974;2023-06-26T07:52:00;8.65;;;2.83;;
67378;SDS011;54262;44.642;-0.974;2023-06-26T07:54:25;6.18;;;2.47;;
67378;SDS011;54262;44.642;-0.974;2023-06-26T07:56:52;5.93;;;2.38;;
67378;SDS011;54262;44.642;-0.974;2023-06-26T07:59:21;9.98;;;2.67;;
67378;SDS011;54262;44.642;-0.974;2023-06-26T08:01:49;7.10;;;2.00;;
67378;SDS011;54262;44.642;-0.974;2023-06-26T08:04:17;5.70;;;2.15;;
67378;SDS011;54262;44.642;-0.974;2023-06-26T08:06:45;3.72;;;3.05;;
67378;SDS011;54262;44.642;-0.974;2023-06-26T08:09:12;7.55;;;2.33;;
67378;SDS011;54262;44.642;-0.974;2023-06-26T08:11:38;3.70;;;2.53;;
67378;SDS011;54262;44.642;-0.974;2023-06-26T08:14:04;5.95;;;2.70;;
67378;SDS011;54262;44.642;-0.974;2023-06-26T08:16:29;2.58;;;2.15;;
67378;SDS011;54262;44.642;-0.974;2023-06-26T08:18:55;7.13;;;2.17;;
67378;SDS011;54262;44.642;-0.974;2023-06-26T08:21:21;4.10;;;2.45;;
67378;SDS011;54262;44.642;-0.974;2023-06-26T08:23:46;3.60;;;2.50;;
67378;SDS011;54262;44.642;-0.974;2023-06-26T08:26:13;4.80;;;2.28;;
67378;SDS011;54262;44.642;-0.974;2023-06-26T08:28:39;8.05;;;2.83;;
67378;SDS011;54262;44.642;-0.974;2023-06-26T08:31:04;7.95;;;2.28;;
67378;SDS011;54262;44.642;-0.974;2023-06-26T08:33:30;2.55;;;1.92;;
67378;SDS011;54262;44.642;-0.974;2023-06-26T08:35:56;4.90;;;2.00;;
67378;SDS011;54262;44.642;-0.974;2023-06-26T08:38:24;3.00;;;2.65;;
67378;SDS011;54262;44.642;-0.974;2023-06-26T08:40:51;5.65;;;2.15;;
67378;SDS011;54262;44.642;-0.974;2023-06-26T08:43:17;5.35;;;2.20;;
67378;SDS011;54262;44.642;-0.974;2023-06-26T08:45:44;3.67;;;2.30;;
67378;SDS011;54262;44.642;-0.974;2023-06-26T08:48:11;4.75;;;2.38;;
67378;SDS011;54262;44.642;-0.974;2023-06-26T08:50:38;6.57;;;2.53;;
67378;SDS011;54262;44.642;-0.974;2023-06-26T08:53:04;4.30;;;2.05;;
67378;SDS011;54262;44.642;-0.974;2023-06-26T08:55:38;4.07;;;1.70;;
67378;SDS011;54262;44.642;-0.974;2023-06-26T08:58:06;2.22;;;2.03;;
67378;SDS011;54262;44.642;-0.974;2023-06-26T09:00:32;4.53;;;1.40;;
67378;SDS011;54262;44.642;-0.974;2023-06-26T09:02:58;2.47;;;1.30;;
67378;SDS011;54262;44.642;-0.974;2023-06-26T09:05:25;5.18;;;1.05;;
67378;SDS011;54262;44.642;-0.974;2023-06-26T09:07:52;4.43;;;1.20;;
67378;SDS011;54262;44.642;-0.974;2023-06-26T09:10:20;6.38;;;1.42;;
67378;SDS011;54262;44.642;-0.974;2023-06-26T09:12:47;3.72;;;1.50;;
67378;SDS011;54262;44.642;-0.974;2023-06-26T09:15:15;2.55;;;1.85;;
67378;SDS011;54262;44.642;-0.974;2023-06-26T09:17:45;1.95;;;1.38;;
67378;SDS011;54262;44.642;-0.974;2023-06-26T09:20:12;2.65;;;1.50;;
67378;SDS011;54262;44.642;-0.974;2023-06-26T09:22:40;5.57;;;1.33;;
67378;SDS011;54262;44.642;-0.974;2023-06-26T09:25:08;2.55;;;1.33;;
67378;SDS011;54262;44.642;-0.974;2023-06-26T09:27:35;2.42;;;1.17;;
67378;SDS011;54262;44.642;-0.974;2023-06-26T09:30:04;2.58;;;1.20;;
67378;SDS011;54262;44.642;-0.974;2023-06-26T09:32:37;3.20;;;1.30;;
67378;SDS011;54262;44.642;-0.974;2023-06-26T09:35:03;1.85;;;1.33;;
67378;SDS011;54262;44.642;-0.974;2023-06-26T09:37:29;1.42;;;1.23;;
67378;SDS011;54262;44.642;-0.974;2023-06-26T09:39:57;4.63;;;1.80;;
67378;SDS011;54262;44.642;-0.974;2023-06-26T09:42:25;4.20;;;1.58;;
67378;SDS011;54262;44.642;-0.974;2023-06-26T09:44:51;2.90;;;1.80;;
67378;SDS011;54262;44.642;-0.974;2023-06-26T09:47:18;4.45;;;1.20;;
67378;SDS011;54262;44.642;-0.974;2023-06-26T09:49:44;2.53;;;1.30;;
67378;SDS011;54262;44.642;-0.974;2023-06-26T09:52:13;1.77;;;1.33;;
67378;SDS011;54262;44.642;-0.974;2023-06-26T09:54:42;2.50;;;1.35;;
67378;SDS011;54262;44.642;-0.974;2023-06-26T09:57:17;3.75;;;1.50;;
67378;SDS011;54262;44.642;-0.974;2023-06-26T09:59:44;2.72;;;2.05;;
67378;SDS011;54262;44.642;-0.974;2023-06-26T10:02:10;3.47;;;1.10;;
67378;SDS011;54262;44.642;-0.974;2023-06-26T10:04:37;2.03;;;1.75;;
67378;SDS011;54262;44.642;-0.974;2023-06-26T10:07:06;4.75;;;1.70;;
67378;SDS011;54262;44.642;-0.974;2023-06-26T10:09:36;1.65;;;1.15;;
67378;SDS011;54262;44.642;-0.974;2023-06-26T10:12:06;1.73;;;1.60;;
67378;SDS011;54262;44.642;-0.974;2023-06-26T10:14:39;1.50;;;1.40;;
67378;SDS011;54262;44.642;-0.974;2023-06-26T10:17:10;1.70;;;1.60;;
67378;SDS011;54262;44.642;-0.974;2023-06-26T10:19:39;1.48;;;1.33;;
67378;SDS011;54262;44.642;-0.974;2023-06-26T10:22:08;2.33;;;1.50;;
67378;SDS011;54262;44.642;-0.974;2023-06-26T10:24:36;3.00;;;1.88;;
67378;SDS011;54262;44.642;-0.974;2023-06-26T10:27:17;1.73;;;1.63;;
67378;SDS011;54262;44.642;-0.974;2023-06-26T10:29:55;2.53;;;1.55;;
67378;SDS011;54262;44.642;-0.974;2023-06-26T10:32:25;1.83;;;1.17;;
67378;SDS011;54262;44.642;-0.974;2023-06-26T10:34:53;1.88;;;1.35;;
67378;SDS011;54262;44.642;-0.974;2023-06-26T10:37:20;2.20;;;1.55;;
67378;SDS011;54262;44.642;-0.974;2023-06-26T10:42:17;1.63;;;1.45;;
67378;SDS011;54262;44.642;-0.974;2023-06-26T10:44:46;0.93;;;0.90;;
67378;SDS011;54262;44.642;-0.974;2023-06-26T10:50:27;3.25;;;1.95;;
67378;SDS011;54262;44.642;-0.974;2023-06-26T10:56:03;2.30;;;1.88;;
67378;SDS011;54262;44.642;-0.974;2023-06-26T11:03:37;1.55;;;1.38;;
67378;SDS011;54262;44.642;-0.974;2023-06-26T11:06:10;1.63;;;1.30;;
67378;SDS011;54262;44.642;-0.974;2023-06-26T11:08:46;1.80;;;1.70;;
67378;SDS011;54262;44.642;-0.974;2023-06-26T11:11:12;2.13;;;1.70;;
67378;SDS011;54262;44.642;-0.974;2023-06-26T11:13:38;2.70;;;1.40;;
67378;SDS011;54262;44.642;-0.974;2023-06-26T11:16:09;2.20;;;2.10;;
67378;SDS011;54262;44.642;-0.974;2023-06-26T11:18:37;2.05;;;1.95;;
67378;SDS011;54262;44.642;-0.974;2023-06-26T11:21:06;1.45;;;1.38;;
67378;SDS011;54262;44.642;-0.974;2023-06-26T11:23:42;1.60;;;1.50;;
67378;SDS011;54262;44.642;-0.974;2023-06-26T11:26:18;2.30;;;1.60;;
67378;SDS011;54262;44.642;-0.974;2023-06-26T11:31:33;2.47;;;1.77;;
67378;SDS011;54262;44.642;-0.974;2023-06-26T11:34:04;1.52;;;1.42;;
67378;SDS011;54262;44.642;-0.974;2023-06-26T11:36:36;1.58;;;1.48;;
67378;SDS011;54262;44.642;-0.974;2023-06-26T11:39:07;2.05;;;1.42;;
67378;SDS011;54262;44.642;-0.974;2023-06-26T11:41:36;4.43;;;2.20;;
67378;SDS011;54262;44.642;-0.974;2023-06-26T11:44:04;2.05;;;1.80;;
67378;SDS011;54262;44.642;-0.974;2023-06-26T11:46:34;1.67;;;1.58;;
67378;SDS011;54262;44.642;-0.974;2023-06-26T11:49:04;1.52;;;1.40;;
67378;SDS011;54262;44.642;-0.974;2023-06-26T11:51:31;1.63;;;1.42;;
67378;SDS011;54262;44.642;-0.974;2023-06-26T11:53:57;2.88;;;2.00;;
67378;SDS011;54262;44.642;-0.974;2023-06-26T11:56:26;2.10;;;1.80;;
67378;SDS011;54262;44.642;-0.974;2023-06-26T12:01:29;2.75;;;2.25;;
67378;SDS011;54262;44.642;-0.974;2023-06-26T12:04:06;1.77;;;1.60;;
67378;SDS011;54262;44.642;-0.974;2023-06-26T12:06:33;4.00;;;1.50;;
67378;SDS011;54262;44.642;-0.974;2023-06-26T12:09:18;1.83;;;1.52;;
67378;SDS011;54262;44.642;-0.974;2023-06-26T12:11:46;3.03;;;1.50;;
67378;SDS011;54262;44.642;-0.974;2023-06-26T12:14:13;1.73;;;1.60;;
67378;SDS011;54262;44.642;-0.974;2023-06-26T12:16:40;4.85;;;2.00;;
67378;SDS011;54262;44.642;-0.974;2023-06-26T12:19:06;2.45;;;1.80;;
67378;SDS011;54262;44.642;-0.974;2023-06-26T12:23:59;3.13;;;1.98;;
67378;SDS011;54262;44.642;-0.974;2023-06-26T12:26:26;2.30;;;1.48;;
67378;SDS011;54262;44.642;-0.974;2023-06-26T12:28:54;1.98;;;1.50;;
67378;SDS011;54262;44.642;-0.974;2023-06-26T12:31:43;1.58;;;1.42;;
67378;SDS011;54262;44.642;-0.974;2023-06-26T12:34:12;1.85;;;1.40;;
67378;SDS011;54262;44.642;-0.974;2023-06-26T12:36:42;1.77;;;1.63;;
67378;SDS011;54262;44.642;-0.974;2023-06-26T12:39:10;1.30;;;1.20;;
67378;SDS011;54262;44.642;-0.974;2023-06-26T12:42:12;2.88;;;1.80;;
67378;SDS011;54262;44.642;-0.974;2023-06-26T12:44:31;1.95;;;1.73;;
67378;SDS011;54262;44.642;-0.974;2023-06-26T12:47:00;2.15;;;1.75;;
67378;SDS011;54262;44.642;-0.974;2023-06-26T12:49:42;2.05;;;1.85;;
67378;SDS011;54262;44.642;-0.974;2023-06-26T12:52:10;3.85;;;1.70;;
67378;SDS011;54262;44.642;-0.974;2023-06-26T12:54:39;2.28;;;1.85;;
67378;SDS011;54262;44.642;-0.974;2023-06-26T12:57:06;2.75;;;2.15;;
67378;SDS011;54262;44.642;-0.974;2023-06-26T12:59:33;7.45;;;2.60;;
67378;SDS011;54262;44.642;-0.974;2023-06-26T13:02:00;5.28;;;1.85;;
67378;SDS011;54262;44.642;-0.974;2023-06-26T13:04:26;2.35;;;2.15;;
67378;SDS011;54262;44.642;-0.974;2023-06-26T13:06:52;2.25;;;2.10;;
67378;SDS011;54262;44.642;-0.974;2023-06-26T13:09:20;1.58;;;1.40;;
67378;SDS011;54262;44.642;-0.974;2023-06-26T13:11:46;2.83;;;2.35;;
67378;SDS011;54262;44.642;-0.974;2023-06-26T13:14:13;2.85;;;2.55;;
67378;SDS011;54262;44.642;-0.974;2023-06-26T13:16:39;4.05;;;3.70;;
67378;SDS011;54262;44.642;-0.974;2023-06-26T13:19:05;15.70;;;4.63;;
67378;SDS011;54262;44.642;-0.974;2023-06-26T13:21:31;3.17;;;2.88;;
67378;SDS011;54262;44.642;-0.974;2023-06-26T13:23:57;3.05;;;2.85;;
67378;SDS011;54262;44.642;-0.974;2023-06-26T13:26:24;5.00;;;4.55;;
67378;SDS011;54262;44.642;-0.974;2023-06-26T13:28:51;3.33;;;3.03;;
67378;SDS011;54262;44.642;-0.974;2023-06-26T13:31:17;4.60;;;4.32;;
67378;SDS011;54262;44.642;-0.974;2023-06-26T13:33:43;4.00;;;3.70;;
67378;SDS011;54262;44.642;-0.974;2023-06-26T13:36:10;5.93;;;4.13;;
67378;SDS011;54262;44.642;-0.974;2023-06-26T13:38:35;4.05;;;3.75;;
67378;SDS011;54262;44.642;-0.974;2023-06-26T13:41:01;8.07;;;4.82;;
67378;SDS011;54262;44.642;-0.974;2023-06-26T13:43:27;5.38;;;5.07;;
67378;SDS011;54262;44.642;-0.974;2023-06-26T13:45:56;4.80;;;4.00;;
67378;SDS011;54262;44.642;-0.974;2023-06-26T13:48:25;8.10;;;5.07;;
67378;SDS011;54262;44.642;-0.974;2023-06-26T13:50:51;4.03;;;3.83;;
67378;SDS011;54262;44.642;-0.974;2023-06-26T13:53:17;4.78;;;4.13;;
67378;SDS011;54262;44.642;-0.974;2023-06-26T13:55:42;4.78;;;4.45;;
67378;SDS011;54262;44.642;-0.974;2023-06-26T13:58:11;4.47;;;4.10;;
67378;SDS011;54262;44.642;-0.974;2023-06-26T14:00:38;4.13;;;3.83;;
67378;SDS011;54262;44.642;-0.974;2023-06-26T14:03:04;4.15;;;3.47;;
67378;SDS011;54262;44.642;-0.974;2023-06-26T14:05:35;5.00;;;4.70;;
67378;SDS011;54262;44.642;-0.974;2023-06-26T14:08:07;3.92;;;3.70;;
67378;SDS011;54262;44.642;-0.974;2023-06-26T14:10:34;4.25;;;4.03;;
67378;SDS011;54262;44.642;-0.974;2023-06-26T14:13:00;8.23;;;3.40;;
67378;SDS011;54262;44.642;-0.974;2023-06-26T14:15:26;3.30;;;3.10;;
67378;SDS011;54262;44.642;-0.974;2023-06-26T14:17:52;3.40;;;3.10;;
67378;SDS011;54262;44.642;-0.974;2023-06-26T14:20:20;3.35;;;3.15;;
67378;SDS011;54262;44.642;-0.974;2023-06-26T14:22:47;13.18;;;3.53;;
67378;SDS011;54262;44.642;-0.974;2023-06-26T14:25:14;3.13;;;2.92;;
67378;SDS011;54262;44.642;-0.974;2023-06-26T14:27:41;3.72;;;3.42;;
67378;SDS011;54262;44.642;-0.974;2023-06-26T14:30:06;2.60;;;2.45;;
67378;SDS011;54262;44.642;-0.974;2023-06-26T14:32:36;2.97;;;2.80;;
67378;SDS011;54262;44.642;-0.974;2023-06-26T14:35:02;2.60;;;2.40;;
67378;SDS011;54262;44.642;-0.974;2023-06-26T14:37:28;3.15;;;2.85;;
67378;SDS011;54262;44.642;-0.974;2023-06-26T14:39:55;3.67;;;2.88;;
67378;SDS011;54262;44.642;-0.974;2023-06-26T14:42:22;4.32;;;2.70;;
67378;SDS011;54262;44.642;-0.974;2023-06-26T14:44:48;6.20;;;2.70;;
67378;SDS011;54262;44.642;-0.974;2023-06-26T14:47:18;4.78;;;3.15;;
67378;SDS011;54262;44.642;-0.974;2023-06-26T14:49:45;4.53;;;2.92;;
67378;SDS011;54262;44.642;-0.974;2023-06-26T14:52:11;7.18;;;2.70;;
67378;SDS011;54262;44.642;-0.974;2023-06-26T14:54:37;7.45;;;2.55;;
67378;SDS011;54262;44.642;-0.974;2023-06-26T14:57:03;4.90;;;2.92;;
67378;SDS011;54262;44.642;-0.974;2023-06-26T14:59:29;3.28;;;2.97;;